sensor_id;sensor_type;location;lat;lon;timestamp;temperature;humidity
30628;DHT22;17394;50.890;4.724;2023-08-08T00:01:27;12.70;99.90
30628;DHT22;17394;50.890;4.724;2023-08-08T00:03:53;12.70;99.90
30628;DHT22;17394;50.890;4.724;2023-08-08T00:06:19;12.70;99.90
30628;DHT22;17394;50.890;4.724;2023-08-08T00:08:45;12.70;99.90
30628;DHT22;17394;50.890;4.724;2023-08-08T00:11:11;12.70;99.90
30628;DHT22;17394;50.890;4.724;2023-08-08T00:13:37;12.60;99.90
30628;DHT22;17394;50.890;4.724;2023-08-08T00:16:03;12.60;99.90
30628;DHT22;17394;50.890;4.724;2023-08-08T00:18:29;12.60;99.90
30628;DHT22;17394;50.890;4.724;2023-08-08T00:20:55;12.60;99.90
30628;DHT22;17394;50.890;4.724;2023-08-08T00:23:21;12.60;99.90
30628;DHT22;17394;50.890;4.724;2023-08-08T00:25:47;12.60;99.90
30628;DHT22;17394;50.890;4.724;2023-08-08T00:28:15;12.60;99.90
30628;DHT22;17394;50.890;4.724;2023-08-08T00:30:41;12.60;99.90
30628;DHT22;17394;50.890;4.724;2023-08-08T00:33:08;12.60;99.90
30628;DHT22;17394;50.890;4.724;2023-08-08T00:35:35;12.60;99.90
30628;DHT22;17394;50.890;4.724;2023-08-08T00:38:01;12.60;99.90
30628;DHT22;17394;50.890;4.724;2023-08-08T00:40:27;12.60;99.90
30628;DHT22;17394;50.890;4.724;2023-08-08T00:42:53;12.70;99.90
30628;DHT22;17394;50.890;4.724;2023-08-08T00:45:19;12.70;99.90
30628;DHT22;17394;50.890;4.724;2023-08-08T00:47:45;12.70;99.90
30628;DHT22;17394;50.890;4.724;2023-08-08T00:50:13;12.70;99.90
30628;DHT22;17394;50.890;4.724;2023-08-08T00:52:39;12.70;99.90
30628;DHT22;17394;50.890;4.724;2023-08-08T00:55:07;12.70;99.90
30628;DHT22;17394;50.890;4.724;2023-08-08T00:57:33;12.70;99.90
30628;DHT22;17394;50.890;4.724;2023-08-08T01:00:00;12.70;99.90
30628;DHT22;17394;50.890;4.724;2023-08-08T01:02:26;12.70;99.90
30628;DHT22;17394;50.890;4.724;2023-08-08T01:04:52;12.70;99.90
30628;DHT22;17394;50.890;4.724;2023-08-08T01:07:20;12.70;99.90
30628;DHT22;17394;50.890;4.724;2023-08-08T01:12:34;12.70;99.90
30628;DHT22;17394;50.890;4.724;2023-08-08T01:15:02;12.70;99.90
30628;DHT22;17394;50.890;4.724;2023-08-08T01:17:30;12.70;99.90
30628;DHT22;17394;50.890;4.724;2023-08-08T01:19:56;12.70;99.90
30628;DHT22;17394;50.890;4.724;2023-08-08T01:22:23;12.70;99.90
30628;DHT22;17394;50.890;4.724;2023-08-08T01:24:50;12.70;99.90
30628;DHT22;17394;50.890;4.724;2023-08-08T01:27:17;12.70;99.90
30628;DHT22;17394;50.890;4.724;2023-08-08T01:29:43;12.60;99.90
30628;DHT22;17394;50.890;4.724;2023-08-08T01:32:09;12.60;99.90
30628;DHT22;17394;50.890;4.724;2023-08-08T01:34:36;12.60;99.90
30628;DHT22;17394;50.890;4.724;2023-08-08T01:37:05;12.70;99.90
30628;DHT22;17394;50.890;4.724;2023-08-08T01:39:33;12.60;99.90
30628;DHT22;17394;50.890;4.724;2023-08-08T01:41:59;12.60;99.90
30628;DHT22;17394;50.890;4.724;2023-08-08T01:44:26;12.60;99.90
30628;DHT22;17394;50.890;4.724;2023-08-08T01:46:52;12.00;99.90
30628;DHT22;17394;50.890;4.724;2023-08-08T01:49:18;12.60;99.90
30628;DHT22;17394;50.890;4.724;2023-08-08T01:51:44;12.50;99.90
30628;DHT22;17394;50.890;4.724;2023-08-08T01:54:10;12.60;99.90
30628;DHT22;17394;50.890;4.724;2023-08-08T01:56:36;12.60;99.90
30628;DHT22;17394;50.890;4.724;2023-08-08T01:59:02;12.60;99.90
30628;DHT22;17394;50.890;4.724;2023-08-08T02:01:28;12.60;99.90
30628;DHT22;17394;50.890;4.724;2023-08-08T02:03:53;12.60;99.90
30628;DHT22;17394;50.890;4.724;2023-08-08T02:06:19;12.60;99.90
30628;DHT22;17394;50.890;4.724;2023-08-08T02:08:46;12.60;99.90
30628;DHT22;17394;50.890;4.724;2023-08-08T02:11:12;12.70;99.90
30628;DHT22;17394;50.890;4.724;2023-08-08T02:13:37;12.70;99.90
30628;DHT22;17394;50.890;4.724;2023-08-08T02:16:03;12.70;99.90
30628;DHT22;17394;50.890;4.724;2023-08-08T02:18:30;12.70;99.90
30628;DHT22;17394;50.890;4.724;2023-08-08T02:20:55;12.70;99.90
30628;DHT22;17394;50.890;4.724;2023-08-08T02:23:21;12.70;99.90
30628;DHT22;17394;50.890;4.724;2023-08-08T02:25:48;12.70;99.90
30628;DHT22;17394;50.890;4.724;2023-08-08T02:28:14;12.70;99.90
30628;DHT22;17394;50.890;4.724;2023-08-08T02:30:40;12.70;99.90
30628;DHT22;17394;50.890;4.724;2023-08-08T02:33:06;12.80;99.90
30628;DHT22;17394;50.890;4.724;2023-08-08T02:35:32;12.90;99.90
30628;DHT22;17394;50.890;4.724;2023-08-08T02:37:58;12.90;99.90
30628;DHT22;17394;50.890;4.724;2023-08-08T02:40:24;12.90;99.90
30628;DHT22;17394;50.890;4.724;2023-08-08T02:42:52;12.90;99.90
30628;DHT22;17394;50.890;4.724;2023-08-08T02:45:18;12.90;99.90
30628;DHT22;17394;50.890;4.724;2023-08-08T02:47:44;12.90;99.90
30628;DHT22;17394;50.890;4.724;2023-08-08T02:50:10;12.90;99.90
30628;DHT22;17394;50.890;4.724;2023-08-08T02:52:36;12.90;99.90
30628;DHT22;17394;50.890;4.724;2023-08-08T02:55:02;12.90;99.90
30628;DHT22;17394;50.890;4.724;2023-08-08T02:57:28;12.90;99.90
30628;DHT22;17394;50.890;4.724;2023-08-08T02:59:54;12.90;99.90
30628;DHT22;17394;50.890;4.724;2023-08-08T03:02:20;12.90;99.90
30628;DHT22;17394;50.890;4.724;2023-08-08T03:04:46;12.90;99.90
30628;DHT22;17394;50.890;4.724;2023-08-08T03:07:13;12.90;99.90
30628;DHT22;17394;50.890;4.724;2023-08-08T03:09:39;12.90;99.90
30628;DHT22;17394;50.890;4.724;2023-08-08T03:12:05;12.90;99.90
30628;DHT22;17394;50.890;4.724;2023-08-08T03:14:31;12.90;99.90
30628;DHT22;17394;50.890;4.724;2023-08-08T03:16:57;12.90;99.90
30628;DHT22;17394;50.890;4.724;2023-08-08T03:19:22;13.00;99.90
30628;DHT22;17394;50.890;4.724;2023-08-08T03:21:48;13.00;99.90
30628;DHT22;17394;50.890;4.724;2023-08-08T03:24:15;13.00;99.90
30628;DHT22;17394;50.890;4.724;2023-08-08T03:26:41;13.00;99.90
30628;DHT22;17394;50.890;4.724;2023-08-08T03:29:07;13.00;99.90
30628;DHT22;17394;50.890;4.724;2023-08-08T03:31:36;12.90;99.90
30628;DHT22;17394;50.890;4.724;2023-08-08T03:34:02;13.00;99.90
30628;DHT22;17394;50.890;4.724;2023-08-08T03:36:28;12.90;99.90
30628;DHT22;17394;50.890;4.724;2023-08-08T03:38:53;12.90;99.90
30628;DHT22;17394;50.890;4.724;2023-08-08T03:41:19;12.80;99.90
30628;DHT22;17394;50.890;4.724;2023-08-08T03:43:45;12.80;99.90
30628;DHT22;17394;50.890;4.724;2023-08-08T03:46:11;12.80;99.90
30628;DHT22;17394;50.890;4.724;2023-08-08T03:48:37;12.80;99.90
30628;DHT22;17394;50.890;4.724;2023-08-08T03:51:03;12.70;99.90
30628;DHT22;17394;50.890;4.724;2023-08-08T03:53:29;12.40;99.90
30628;DHT22;17394;50.890;4.724;2023-08-08T03:55:55;12.70;99.90
30628;DHT22;17394;50.890;4.724;2023-08-08T03:58:21;12.70;99.90
30628;DHT22;17394;50.890;4.724;2023-08-08T04:00:47;12.70;99.90
30628;DHT22;17394;50.890;4.724;2023-08-08T04:03:13;12.60;99.90
30628;DHT22;17394;50.890;4.724;2023-08-08T04:05:40;12.60;99.90
30628;DHT22;17394;50.890;4.724;2023-08-08T04:08:06;12.60;99.90
30628;DHT22;17394;50.890;4.724;2023-08-08T04:10:32;12.60;99.90
30628;DHT22;17394;50.890;4.724;2023-08-08T04:12:58;12.60;99.90
30628;DHT22;17394;50.890;4.724;2023-08-08T04:15:24;12.50;99.90
30628;DHT22;17394;50.890;4.724;2023-08-08T04:17:50;12.50;99.90
30628;DHT22;17394;50.890;4.724;2023-08-08T04:20:16;12.50;99.90
30628;DHT22;17394;50.890;4.724;2023-08-08T04:22:42;12.50;99.90
30628;DHT22;17394;50.890;4.724;2023-08-08T04:25:09;12.50;99.90
30628;DHT22;17394;50.890;4.724;2023-08-08T04:27:35;12.50;99.90
30628;DHT22;17394;50.890;4.724;2023-08-08T04:30:00;12.50;99.90
30628;DHT22;17394;50.890;4.724;2023-08-08T04:32:27;12.50;99.90
30628;DHT22;17394;50.890;4.724;2023-08-08T04:34:52;12.60;99.90
30628;DHT22;17394;50.890;4.724;2023-08-08T04:37:18;12.50;99.90
30628;DHT22;17394;50.890;4.724;2023-08-08T04:39:44;12.50;99.90
30628;DHT22;17394;50.890;4.724;2023-08-08T04:42:10;12.60;99.90
30628;DHT22;17394;50.890;4.724;2023-08-08T04:44:36;12.60;99.90
30628;DHT22;17394;50.890;4.724;2023-08-08T04:47:02;12.60;99.90
30628;DHT22;17394;50.890;4.724;2023-08-08T04:49:28;12.60;99.90
30628;DHT22;17394;50.890;4.724;2023-08-08T04:51:54;12.60;99.90
30628;DHT22;17394;50.890;4.724;2023-08-08T04:54:20;12.60;99.90
30628;DHT22;17394;50.890;4.724;2023-08-08T04:56:46;12.70;99.90
30628;DHT22;17394;50.890;4.724;2023-08-08T04:59:11;12.70;99.90
30628;DHT22;17394;50.890;4.724;2023-08-08T05:01:37;12.80;99.90
30628;DHT22;17394;50.890;4.724;2023-08-08T05:04:03;12.80;99.90
30628;DHT22;17394;50.890;4.724;2023-08-08T05:06:31;12.80;99.90
30628;DHT22;17394;50.890;4.724;2023-08-08T05:08:57;12.80;99.90
30628;DHT22;17394;50.890;4.724;2023-08-08T05:11:23;12.90;99.90
30628;DHT22;17394;50.890;4.724;2023-08-08T05:13:49;12.90;99.90
30628;DHT22;17394;50.890;4.724;2023-08-08T05:16:15;12.90;99.90
30628;DHT22;17394;50.890;4.724;2023-08-08T05:18:41;13.00;99.90
30628;DHT22;17394;50.890;4.724;2023-08-08T05:21:09;13.00;99.90
30628;DHT22;17394;50.890;4.724;2023-08-08T05:23:35;13.00;99.90
30628;DHT22;17394;50.890;4.724;2023-08-08T05:26:01;13.10;99.90
30628;DHT22;17394;50.890;4.724;2023-08-08T05:28:27;13.10;99.90
30628;DHT22;17394;50.890;4.724;2023-08-08T05:30:53;13.20;99.90
30628;DHT22;17394;50.890;4.724;2023-08-08T05:33:19;13.20;99.90
30628;DHT22;17394;50.890;4.724;2023-08-08T05:35:45;13.30;99.90
30628;DHT22;17394;50.890;4.724;2023-08-08T05:38:11;13.30;99.90
30628;DHT22;17394;50.890;4.724;2023-08-08T05:40:37;13.30;99.90
30628;DHT22;17394;50.890;4.724;2023-08-08T05:43:03;13.30;99.90
30628;DHT22;17394;50.890;4.724;2023-08-08T05:45:29;13.40;99.90
30628;DHT22;17394;50.890;4.724;2023-08-08T05:47:55;13.40;99.90
30628;DHT22;17394;50.890;4.724;2023-08-08T05:50:21;13.40;99.90
30628;DHT22;17394;50.890;4.724;2023-08-08T05:52:47;13.50;99.90
30628;DHT22;17394;50.890;4.724;2023-08-08T05:55:13;13.60;99.90
30628;DHT22;17394;50.890;4.724;2023-08-08T05:57:39;13.60;99.90
30628;DHT22;17394;50.890;4.724;2023-08-08T06:00:05;13.70;99.90
30628;DHT22;17394;50.890;4.724;2023-08-08T06:02:34;13.90;99.90
30628;DHT22;17394;50.890;4.724;2023-08-08T06:04:59;14.00;99.90
30628;DHT22;17394;50.890;4.724;2023-08-08T06:07:25;14.20;99.90
30628;DHT22;17394;50.890;4.724;2023-08-08T06:09:51;14.40;99.90
30628;DHT22;17394;50.890;4.724;2023-08-08T06:12:17;14.60;99.90
30628;DHT22;17394;50.890;4.724;2023-08-08T06:14:43;14.80;99.90
30628;DHT22;17394;50.890;4.724;2023-08-08T06:17:09;14.90;99.90
30628;DHT22;17394;50.890;4.724;2023-08-08T06:19:35;15.00;99.90
30628;DHT22;17394;50.890;4.724;2023-08-08T06:22:01;15.00;99.90
30628;DHT22;17394;50.890;4.724;2023-08-08T06:24:28;14.90;99.90
30628;DHT22;17394;50.890;4.724;2023-08-08T06:26:54;14.90;99.90
30628;DHT22;17394;50.890;4.724;2023-08-08T06:29:20;14.90;99.90
30628;DHT22;17394;50.890;4.724;2023-08-08T06:31:46;14.90;99.90
30628;DHT22;17394;50.890;4.724;2023-08-08T06:34:12;14.90;99.90
30628;DHT22;17394;50.890;4.724;2023-08-08T06:36:37;14.90;99.90
30628;DHT22;17394;50.890;4.724;2023-08-08T06:39:03;15.00;99.90
30628;DHT22;17394;50.890;4.724;2023-08-08T06:41:31;15.00;99.90
30628;DHT22;17394;50.890;4.724;2023-08-08T06:43:57;15.10;99.90
30628;DHT22;17394;50.890;4.724;2023-08-08T06:46:23;15.10;99.90
30628;DHT22;17394;50.890;4.724;2023-08-08T06:48:50;15.20;99.90
30628;DHT22;17394;50.890;4.724;2023-08-08T06:51:18;15.30;99.90
30628;DHT22;17394;50.890;4.724;2023-08-08T06:53:44;15.40;99.90
30628;DHT22;17394;50.890;4.724;2023-08-08T06:56:10;15.60;99.90
30628;DHT22;17394;50.890;4.724;2023-08-08T06:58:36;15.70;99.90
30628;DHT22;17394;50.890;4.724;2023-08-08T07:01:02;15.90;99.90
30628;DHT22;17394;50.890;4.724;2023-08-08T07:03:28;16.10;99.90
30628;DHT22;17394;50.890;4.724;2023-08-08T07:05:54;16.30;99.90
30628;DHT22;17394;50.890;4.724;2023-08-08T07:08:20;16.50;99.90
30628;DHT22;17394;50.890;4.724;2023-08-08T07:10:46;16.10;99.90
30628;DHT22;17394;50.890;4.724;2023-08-08T07:13:12;16.90;99.90
30628;DHT22;17394;50.890;4.724;2023-08-08T07:15:38;17.10;99.90
30628;DHT22;17394;50.890;4.724;2023-08-08T07:18:04;17.40;99.90
30628;DHT22;17394;50.890;4.724;2023-08-08T07:20:30;17.60;99.90
30628;DHT22;17394;50.890;4.724;2023-08-08T07:22:56;17.80;99.90
30628;DHT22;17394;50.890;4.724;2023-08-08T07:25:23;17.80;99.90
30628;DHT22;17394;50.890;4.724;2023-08-08T07:27:49;17.90;99.90
30628;DHT22;17394;50.890;4.724;2023-08-08T07:30:15;18.00;99.90
30628;DHT22;17394;50.890;4.724;2023-08-08T07:32:41;18.20;99.90
30628;DHT22;17394;50.890;4.724;2023-08-08T07:35:07;18.20;99.90
30628;DHT22;17394;50.890;4.724;2023-08-08T07:37:34;18.20;99.90
30628;DHT22;17394;50.890;4.724;2023-08-08T07:40:00;18.20;99.90
30628;DHT22;17394;50.890;4.724;2023-08-08T07:42:26;18.30;99.90
30628;DHT22;17394;50.890;4.724;2023-08-08T07:44:52;18.40;99.90
30628;DHT22;17394;50.890;4.724;2023-08-08T07:47:18;18.40;99.90
30628;DHT22;17394;50.890;4.724;2023-08-08T07:49:43;18.30;99.90
30628;DHT22;17394;50.890;4.724;2023-08-08T07:52:09;18.30;99.90
30628;DHT22;17394;50.890;4.724;2023-08-08T07:54:35;18.30;99.90
30628;DHT22;17394;50.890;4.724;2023-08-08T07:57:01;18.40;99.90
30628;DHT22;17394;50.890;4.724;2023-08-08T07:59:27;18.30;99.90
30628;DHT22;17394;50.890;4.724;2023-08-08T08:01:53;18.30;99.90
30628;DHT22;17394;50.890;4.724;2023-08-08T08:04:19;18.40;99.90
30628;DHT22;17394;50.890;4.724;2023-08-08T08:06:44;18.50;99.90
30628;DHT22;17394;50.890;4.724;2023-08-08T08:09:10;18.50;99.90
30628;DHT22;17394;50.890;4.724;2023-08-08T08:11:36;18.60;99.90
30628;DHT22;17394;50.890;4.724;2023-08-08T08:14:02;18.60;99.90
30628;DHT22;17394;50.890;4.724;2023-08-08T08:16:28;18.80;99.90
30628;DHT22;17394;50.890;4.724;2023-08-08T08:18:54;19.00;99.90
30628;DHT22;17394;50.890;4.724;2023-08-08T08:21:20;18.90;99.90
30628;DHT22;17394;50.890;4.724;2023-08-08T08:23:46;18.80;99.90
30628;DHT22;17394;50.890;4.724;2023-08-08T08:26:12;18.80;99.90
30628;DHT22;17394;50.890;4.724;2023-08-08T08:28:37;18.70;99.90
30628;DHT22;17394;50.890;4.724;2023-08-08T08:31:05;18.60;99.90
30628;DHT22;17394;50.890;4.724;2023-08-08T08:33:31;18.70;99.90
30628;DHT22;17394;50.890;4.724;2023-08-08T08:35:57;18.80;99.90
30628;DHT22;17394;50.890;4.724;2023-08-08T08:38:23;19.00;99.90
30628;DHT22;17394;50.890;4.724;2023-08-08T08:40:49;18.90;99.90
30628;DHT22;17394;50.890;4.724;2023-08-08T08:43:15;19.00;99.90
30628;DHT22;17394;50.890;4.724;2023-08-08T08:45:43;18.90;99.90
30628;DHT22;17394;50.890;4.724;2023-08-08T08:48:09;19.00;99.90
30628;DHT22;17394;50.890;4.724;2023-08-08T08:50:38;19.10;99.90
30628;DHT22;17394;50.890;4.724;2023-08-08T08:53:05;19.00;99.90
30628;DHT22;17394;50.890;4.724;2023-08-08T08:55:31;19.00;99.90
30628;DHT22;17394;50.890;4.724;2023-08-08T08:57:57;19.10;99.90
30628;DHT22;17394;50.890;4.724;2023-08-08T09:00:22;19.10;99.90
30628;DHT22;17394;50.890;4.724;2023-08-08T09:02:51;19.10;99.90
30628;DHT22;17394;50.890;4.724;2023-08-08T09:05:17;19.20;99.90
30628;DHT22;17394;50.890;4.724;2023-08-08T09:07:47;19.30;99.90
30628;DHT22;17394;50.890;4.724;2023-08-08T09:10:14;19.10;99.90
30628;DHT22;17394;50.890;4.724;2023-08-08T09:12:40;19.10;99.90
30628;DHT22;17394;50.890;4.724;2023-08-08T09:15:06;19.20;99.90
30628;DHT22;17394;50.890;4.724;2023-08-08T09:17:32;19.40;99.90
30628;DHT22;17394;50.890;4.724;2023-08-08T09:19:58;19.50;99.90
30628;DHT22;17394;50.890;4.724;2023-08-08T09:22:24;19.50;99.90
30628;DHT22;17394;50.890;4.724;2023-08-08T09:24:52;19.40;99.90
30628;DHT22;17394;50.890;4.724;2023-08-08T09:27:18;19.60;99.90
30628;DHT22;17394;50.890;4.724;2023-08-08T09:29:44;19.70;99.90
30628;DHT22;17394;50.890;4.724;2023-08-08T09:32:10;19.70;99.90
30628;DHT22;17394;50.890;4.724;2023-08-08T09:34:36;19.80;99.90
30628;DHT22;17394;50.890;4.724;2023-08-08T09:37:02;20.00;99.90
30628;DHT22;17394;50.890;4.724;2023-08-08T09:39:28;20.10;99.90
30628;DHT22;17394;50.890;4.724;2023-08-08T09:41:57;20.20;99.90
30628;DHT22;17394;50.890;4.724;2023-08-08T09:44:24;20.00;99.90
30628;DHT22;17394;50.890;4.724;2023-08-08T09:46:51;20.10;99.90
30628;DHT22;17394;50.890;4.724;2023-08-08T09:49:17;20.10;99.90
30628;DHT22;17394;50.890;4.724;2023-08-08T09:51:44;20.10;99.90
30628;DHT22;17394;50.890;4.724;2023-08-08T09:54:10;20.20;99.90
30628;DHT22;17394;50.890;4.724;2023-08-08T09:56:35;20.20;99.90
30628;DHT22;17394;50.890;4.724;2023-08-08T09:59:02;20.10;99.90
30628;DHT22;17394;50.890;4.724;2023-08-08T10:01:30;20.00;99.90
30628;DHT22;17394;50.890;4.724;2023-08-08T10:03:56;20.00;99.90
30628;DHT22;17394;50.890;4.724;2023-08-08T10:06:23;20.00;99.90
30628;DHT22;17394;50.890;4.724;2023-08-08T10:08:49;19.90;99.90
30628;DHT22;17394;50.890;4.724;2023-08-08T10:11:15;19.90;99.90
30628;DHT22;17394;50.890;4.724;2023-08-08T10:13:48;19.80;99.90
30628;DHT22;17394;50.890;4.724;2023-08-08T10:16:15;19.70;99.90
30628;DHT22;17394;50.890;4.724;2023-08-08T10:18:41;19.60;99.90
30628;DHT22;17394;50.890;4.724;2023-08-08T10:21:07;19.60;99.90
30628;DHT22;17394;50.890;4.724;2023-08-08T10:23:36;19.50;99.90
30628;DHT22;17394;50.890;4.724;2023-08-08T10:26:02;19.50;99.90
30628;DHT22;17394;50.890;4.724;2023-08-08T10:28:28;19.50;99.90
30628;DHT22;17394;50.890;4.724;2023-08-08T10:30:55;19.50;99.90
30628;DHT22;17394;50.890;4.724;2023-08-08T10:33:25;19.50;99.90
30628;DHT22;17394;50.890;4.724;2023-08-08T10:38:20;19.10;99.90
30628;DHT22;17394;50.890;4.724;2023-08-08T10:40:47;19.10;99.90
30628;DHT22;17394;50.890;4.724;2023-08-08T10:43:13;19.20;99.90
30628;DHT22;17394;50.890;4.724;2023-08-08T10:45:43;19.40;99.90
30628;DHT22;17394;50.890;4.724;2023-08-08T10:48:09;19.50;99.90
30628;DHT22;17394;50.890;4.724;2023-08-08T10:50:40;19.60;99.90
30628;DHT22;17394;50.890;4.724;2023-08-08T10:53:08;19.70;99.90
30628;DHT22;17394;50.890;4.724;2023-08-08T10:55:34;19.60;99.90
30628;DHT22;17394;50.890;4.724;2023-08-08T10:58:05;19.50;99.90
30628;DHT22;17394;50.890;4.724;2023-08-08T11:00:32;19.40;99.90
30628;DHT22;17394;50.890;4.724;2023-08-08T11:02:58;19.30;99.90
30628;DHT22;17394;50.890;4.724;2023-08-08T11:05:24;19.30;99.90
30628;DHT22;17394;50.890;4.724;2023-08-08T11:07:51;19.30;99.90
30628;DHT22;17394;50.890;4.724;2023-08-08T11:10:17;19.40;99.90
30628;DHT22;17394;50.890;4.724;2023-08-08T11:12:56;19.30;99.90
30628;DHT22;17394;50.890;4.724;2023-08-08T11:15:22;19.20;99.90
30628;DHT22;17394;50.890;4.724;2023-08-08T11:17:48;19.10;99.90
30628;DHT22;17394;50.890;4.724;2023-08-08T11:20:14;19.00;99.90
30628;DHT22;17394;50.890;4.724;2023-08-08T11:22:40;19.00;99.90
30628;DHT22;17394;50.890;4.724;2023-08-08T11:25:06;18.90;99.90
30628;DHT22;17394;50.890;4.724;2023-08-08T11:27:33;19.00;99.90
30628;DHT22;17394;50.890;4.724;2023-08-08T11:29:59;19.00;99.90
30628;DHT22;17394;50.890;4.724;2023-08-08T11:32:26;18.90;99.90
30628;DHT22;17394;50.890;4.724;2023-08-08T11:34:54;19.00;99.90
30628;DHT22;17394;50.890;4.724;2023-08-08T11:37:20;19.20;99.90
30628;DHT22;17394;50.890;4.724;2023-08-08T11:39:46;19.30;99.90
30628;DHT22;17394;50.890;4.724;2023-08-08T11:42:12;19.50;99.90
30628;DHT22;17394;50.890;4.724;2023-08-08T11:44:39;19.80;99.90
30628;DHT22;17394;50.890;4.724;2023-08-08T11:47:05;20.00;99.90
30628;DHT22;17394;50.890;4.724;2023-08-08T11:49:39;19.80;99.90
30628;DHT22;17394;50.890;4.724;2023-08-08T11:52:06;20.30;99.90
30628;DHT22;17394;50.890;4.724;2023-08-08T11:54:32;20.40;99.90
30628;DHT22;17394;50.890;4.724;2023-08-08T11:56:58;20.50;99.90
30628;DHT22;17394;50.890;4.724;2023-08-08T11:59:23;20.50;99.90
30628;DHT22;17394;50.890;4.724;2023-08-08T12:01:49;20.50;99.90
30628;DHT22;17394;50.890;4.724;2023-08-08T12:04:15;20.60;99.90
30628;DHT22;17394;50.890;4.724;2023-08-08T12:06:41;20.80;99.90
30628;DHT22;17394;50.890;4.724;2023-08-08T12:09:13;21.00;99.90
30628;DHT22;17394;50.890;4.724;2023-08-08T12:11:40;21.30;99.90
30628;DHT22;17394;50.890;4.724;2023-08-08T12:14:07;21.50;99.90
30628;DHT22;17394;50.890;4.724;2023-08-08T12:16:36;21.40;99.90
30628;DHT22;17394;50.890;4.724;2023-08-08T12:19:04;21.30;99.90
30628;DHT22;17394;50.890;4.724;2023-08-08T12:21:32;21.10;99.90
30628;DHT22;17394;50.890;4.724;2023-08-08T12:23:58;21.00;99.90
30628;DHT22;17394;50.890;4.724;2023-08-08T12:26:24;21.00;99.90
30628;DHT22;17394;50.890;4.724;2023-08-08T12:28:50;20.90;99.90
30628;DHT22;17394;50.890;4.724;2023-08-08T12:31:19;20.80;99.90
30628;DHT22;17394;50.890;4.724;2023-08-08T12:33:45;20.70;99.90
30628;DHT22;17394;50.890;4.724;2023-08-08T12:36:12;20.90;99.90
30628;DHT22;17394;50.890;4.724;2023-08-08T12:38:37;21.30;99.90
30628;DHT22;17394;50.890;4.724;2023-08-08T12:41:03;21.50;99.90
30628;DHT22;17394;50.890;4.724;2023-08-08T12:43:29;21.40;99.90
30628;DHT22;17394;50.890;4.724;2023-08-08T12:45:55;21.30;99.90
30628;DHT22;17394;50.890;4.724;2023-08-08T12:48:21;21.30;99.90
30628;DHT22;17394;50.890;4.724;2023-08-08T12:50:47;21.40;99.90
30628;DHT22;17394;50.890;4.724;2023-08-08T12:53:13;21.60;99.90
30628;DHT22;17394;50.890;4.724;2023-08-08T12:55:39;21.50;99.90
30628;DHT22;17394;50.890;4.724;2023-08-08T12:58:05;21.30;99.90
30628;DHT22;17394;50.890;4.724;2023-08-08T13:00:31;21.50;99.90
30628;DHT22;17394;50.890;4.724;2023-08-08T13:02:57;21.00;99.90
30628;DHT22;17394;50.890;4.724;2023-08-08T13:05:23;21.00;99.90
30628;DHT22;17394;50.890;4.724;2023-08-08T13:07:48;21.00;99.90
30628;DHT22;17394;50.890;4.724;2023-08-08T13:10:14;21.10;99.90
30628;DHT22;17394;50.890;4.724;2023-08-08T13:12:40;21.30;99.90
30628;DHT22;17394;50.890;4.724;2023-08-08T13:15:06;21.40;99.90
30628;DHT22;17394;50.890;4.724;2023-08-08T13:17:33;21.40;99.90
30628;DHT22;17394;50.890;4.724;2023-08-08T13:19:58;21.30;99.90
30628;DHT22;17394;50.890;4.724;2023-08-08T13:22:24;21.10;99.90
30628;DHT22;17394;50.890;4.724;2023-08-08T13:24:50;21.10;99.90
30628;DHT22;17394;50.890;4.724;2023-08-08T13:27:16;21.00;99.90
30628;DHT22;17394;50.890;4.724;2023-08-08T13:29:42;21.20;99.90
30628;DHT22;17394;50.890;4.724;2023-08-08T13:32:08;21.50;99.90
30628;DHT22;17394;50.890;4.724;2023-08-08T13:34:34;21.70;99.90
30628;DHT22;17394;50.890;4.724;2023-08-08T13:37:00;21.80;99.90
30628;DHT22;17394;50.890;4.724;2023-08-08T13:39:26;21.70;99.90
30628;DHT22;17394;50.890;4.724;2023-08-08T13:41:52;21.60;99.90
30628;DHT22;17394;50.890;4.724;2023-08-08T13:44:17;21.40;99.90
30628;DHT22;17394;50.890;4.724;2023-08-08T13:46:43;21.40;99.90
30628;DHT22;17394;50.890;4.724;2023-08-08T13:49:09;21.20;99.90
30628;DHT22;17394;50.890;4.724;2023-08-08T13:51:35;21.20;99.90
30628;DHT22;17394;50.890;4.724;2023-08-08T13:54:01;21.30;99.90
30628;DHT22;17394;50.890;4.724;2023-08-08T13:56:27;21.70;99.90
30628;DHT22;17394;50.890;4.724;2023-08-08T13:58:52;21.90;99.90
30628;DHT22;17394;50.890;4.724;2023-08-08T14:01:18;22.30;99.90
30628;DHT22;17394;50.890;4.724;2023-08-08T14:03:46;22.30;99.90
30628;DHT22;17394;50.890;4.724;2023-08-08T14:06:12;22.70;99.90
30628;DHT22;17394;50.890;4.724;2023-08-08T14:08:38;22.60;99.90
30628;DHT22;17394;50.890;4.724;2023-08-08T14:11:06;22.60;99.90
30628;DHT22;17394;50.890;4.724;2023-08-08T14:13:32;24.90;99.90
30628;DHT22;17394;50.890;4.724;2023-08-08T14:16:00;22.60;99.90
30628;DHT22;17394;50.890;4.724;2023-08-08T14:18:25;22.00;99.90
30628;DHT22;17394;50.890;4.724;2023-08-08T14:20:57;22.40;99.90
30628;DHT22;17394;50.890;4.724;2023-08-08T14:23:28;22.60;99.90
30628;DHT22;17394;50.890;4.724;2023-08-08T14:26:09;22.70;99.90
30628;DHT22;17394;50.890;4.724;2023-08-08T14:28:35;21.60;99.90
30628;DHT22;17394;50.890;4.724;2023-08-08T14:31:00;21.70;99.90
30628;DHT22;17394;50.890;4.724;2023-08-08T14:33:27;21.50;99.90
30628;DHT22;17394;50.890;4.724;2023-08-08T14:35:53;21.40;99.90
30628;DHT22;17394;50.890;4.724;2023-08-08T14:38:23;21.40;99.90
30628;DHT22;17394;50.890;4.724;2023-08-08T14:40:49;21.30;99.90
30628;DHT22;17394;50.890;4.724;2023-08-08T14:43:15;21.20;99.90
30628;DHT22;17394;50.890;4.724;2023-08-08T14:45:40;21.10;99.90
30628;DHT22;17394;50.890;4.724;2023-08-08T14:48:06;21.10;99.90
30628;DHT22;17394;50.890;4.724;2023-08-08T14:50:32;21.00;99.90
30628;DHT22;17394;50.890;4.724;2023-08-08T14:52:58;21.00;99.90
30628;DHT22;17394;50.890;4.724;2023-08-08T14:55:23;20.90;99.90
30628;DHT22;17394;50.890;4.724;2023-08-08T14:57:49;20.70;99.90
30628;DHT22;17394;50.890;4.724;2023-08-08T15:00:16;20.60;99.90
30628;DHT22;17394;50.890;4.724;2023-08-08T15:02:41;20.50;99.90
30628;DHT22;17394;50.890;4.724;2023-08-08T15:05:07;20.30;99.90
30628;DHT22;17394;50.890;4.724;2023-08-08T15:07:33;20.30;99.90
30628;DHT22;17394;50.890;4.724;2023-08-08T15:09:59;20.20;99.90
30628;DHT22;17394;50.890;4.724;2023-08-08T15:12:24;20.10;99.90
30628;DHT22;17394;50.890;4.724;2023-08-08T15:14:50;20.10;99.90
30628;DHT22;17394;50.890;4.724;2023-08-08T15:17:16;20.00;99.90
30628;DHT22;17394;50.890;4.724;2023-08-08T15:19:42;20.00;99.90
30628;DHT22;17394;50.890;4.724;2023-08-08T15:22:07;19.90;99.90
30628;DHT22;17394;50.890;4.724;2023-08-08T15:24:33;19.80;99.90
30628;DHT22;17394;50.890;4.724;2023-08-08T15:27:01;19.70;99.90
30628;DHT22;17394;50.890;4.724;2023-08-08T15:29:27;19.70;99.90